sensor_id;sensor_type;location;lat;lon;timestamp;pressure;altitude;pressure_sealevel;temperature;humidity
63665;BME280;49820;33.966;73.390;2023-05-01T02:49:04;78627.06;;;10.35;100.00
63665;BME280;49820;33.966;73.390;2023-05-01T02:51:35;78577.19;;;10.01;100.00
63665;BME280;49820;33.966;73.390;2023-05-01T03:44:55;78669.19;;;9.13;100.00
63665;BME280;49820;33.966;73.390;2023-05-01T04:29:33;78696.03;;;7.90;100.00
63665;BME280;49820;33.966;73.390;2023-05-01T04:32:04;78691.09;;;7.68;100.00
63665;BME280;49820;33.966;73.390;2023-05-01T07:58:30;78697.34;;;12.49;100.00
63665;BME280;49820;33.966;73.390;2023-05-01T08:00:59;78675.72;;;13.38;100.00
63665;BME280;49820;33.966;73.390;2023-05-01T08:03:29;78697.00;;;13.44;100.00
63665;BME280;49820;33.966;73.390;2023-05-01T08:05:58;78698.38;;;12.81;100.00
63665;BME280;49820;33.966;73.390;2023-05-01T08:08:27;78703.28;;;12.51;100.00
63665;BME280;49820;33.966;73.390;2023-05-01T08:10:56;78698.63;;;12.06;100.00
63665;BME280;49820;33.966;73.390;2023-05-01T08:13:25;78723.91;;;11.89;100.00
63665;BME280;49820;33.966;73.390;2023-05-01T08:15:54;78683.28;;;11.57;100.00
63665;BME280;49820;33.966;73.390;2023-05-01T08:18:23;78722.34;;;11.48;100.00
63665;BME280;49820;33.966;73.390;2023-05-01T08:20:58;78729.22;;;11.41;100.00
63665;BME280;49820;33.966;73.390;2023-05-01T08:23:27;78744.69;;;11.36;100.00
63665;BME280;49820;33.966;73.390;2023-05-01T08:25:55;78734.59;;;11.14;100.00
63665;BME280;49820;33.966;73.390;2023-05-01T08:28:25;78719.94;;;10.86;100.00
63665;BME280;49820;33.966;73.390;2023-05-01T08:30:54;78719.53;;;10.76;100.00
63665;BME280;49820;33.966;73.390;2023-05-01T08:33:23;78710.88;;;10.75;100.00
63665;BME280;49820;33.966;73.390;2023-05-01T08:35:51;78716.88;;;10.76;100.00
63665;BME280;49820;33.966;73.390;2023-05-01T08:38:20;78729.28;;;11.12;100.00
63665;BME280;49820;33.966;73.390;2023-05-01T08:40:53;78732.31;;;11.25;100.00
63665;BME280;49820;33.966;73.390;2023-05-01T08:43:24;78704.88;;;11.51;100.00
63665;BME280;49820;33.966;73.390;2023-05-01T08:45:55;78708.84;;;11.77;100.00
63665;BME280;49820;33.966;73.390;2023-05-01T08:48:27;78705.28;;;11.60;100.00
63665;BME280;49820;33.966;73.390;2023-05-01T08:50:58;78697.56;;;11.50;100.00
63665;BME280;49820;33.966;73.390;2023-05-01T08:53:30;78681.06;;;11.41;100.00
63665;BME280;49820;33.966;73.390;2023-05-01T08:56:00;78677.38;;;11.53;100.00
63665;BME280;49820;33.966;73.390;2023-05-01T08:58:34;78655.69;;;11.15;100.00
63665;BME280;49820;33.966;73.390;2023-05-01T09:01:05;78646.13;;;11.22;100.00
63665;BME280;49820;33.966;73.390;2023-05-01T09:03:35;78655.97;;;11.05;100.00
63665;BME280;49820;33.966;73.390;2023-05-01T09:06:05;78639.03;;;10.88;100.00
63665;BME280;49820;33.966;73.390;2023-05-01T09:08:34;78621.06;;;10.35;100.00
63665;BME280;49820;33.966;73.390;2023-05-01T09:11:03;78640.63;;;10.54;100.00
63665;BME280;49820;33.966;73.390;2023-05-01T09:13:34;78616.16;;;11.65;100.00
63665;BME280;49820;33.966;73.390;2023-05-01T09:16:04;78620.03;;;11.93;100.00
63665;BME280;49820;33.966;73.390;2023-05-01T09:18:33;78619.03;;;11.59;100.00
63665;BME280;49820;33.966;73.390;2023-05-01T09:21:03;78599.47;;;11.42;100.00
63665;BME280;49820;33.966;73.390;2023-05-01T09:23:32;78634.94;;;11.63;100.00
63665;BME280;49820;33.966;73.390;2023-05-01T09:26:06;78623.81;;;11.32;100.00
63665;BME280;49820;33.966;73.390;2023-05-01T09:28:46;78615.28;;;11.50;100.00
63665;BME280;49820;33.966;73.390;2023-05-01T09:31:26;78620.91;;;13.12;100.00
63665;BME280;49820;33.966;73.390;2023-05-01T09:34:04;78585.53;;;12.06;100.00
63665;BME280;49820;33.966;73.390;2023-05-01T09:36:34;78584.19;;;12.88;100.00
63665;BME280;49820;33.966;73.390;2023-05-01T09:39:04;78587.47;;;14.22;100.00
63665;BME280;49820;33.966;73.390;2023-05-01T09:41:33;78570.88;;;13.98;100.00
63665;BME280;49820;33.966;73.390;2023-05-01T09:44:03;78538.88;;;14.28;100.00
63665;BME280;49820;33.966;73.390;2023-05-01T09:46:40;78573.75;;;15.63;100.00
63665;BME280;49820;33.966;73.390;2023-05-01T09:49:10;78577.63;;;15.67;100.00
63665;BME280;49820;33.966;73.390;2023-05-01T09:51:40;78588.66;;;16.38;100.00
63665;BME280;49820;33.966;73.390;2023-05-01T09:54:19;78582.44;;;16.41;100.00
63665;BME280;49820;33.966;73.390;2023-05-01T09:56:48;78575.94;;;16.51;84.81
63665;BME280;49820;33.966;73.390;2023-05-01T09:59:18;78519.97;;;16.37;82.09
63665;BME280;49820;33.966;73.390;2023-05-01T10:01:48;78572.53;;;17.39;100.00
63665;BME280;49820;33.966;73.390;2023-05-01T10:04:31;78576.44;;;17.27;89.82
63665;BME280;49820;33.966;73.390;2023-05-01T10:07:19;78575.97;;;17.79;100.00
63665;BME280;49820;33.966;73.390;2023-05-01T10:09:50;78560.72;;;17.32;87.70
63665;BME280;49820;33.966;73.390;2023-05-01T10:12:26;78566.44;;;16.52;100.00
63665;BME280;49820;33.966;73.390;2023-05-01T10:14:56;78557.75;;;17.65;96.69
63665;BME280;49820;33.966;73.390;2023-05-01T10:17:34;78564.94;;;17.56;94.71
63665;BME280;49820;33.966;73.390;2023-05-01T10:20:08;78540.59;;;17.01;87.64
63665;BME280;49820;33.966;73.390;2023-05-01T10:22:39;78542.31;;;18.16;93.58
63665;BME280;49820;33.966;73.390;2023-05-01T10:25:09;78550.94;;;18.46;79.82
63665;BME280;49820;33.966;73.390;2023-05-01T10:27:40;78551.22;;;17.33;75.91
63665;BME280;49820;33.966;73.390;2023-05-01T10:30:09;78531.97;;;17.81;92.60
63665;BME280;49820;33.966;73.390;2023-05-01T10:32:40;78536.72;;;17.53;76.88
63665;BME280;49820;33.966;73.390;2023-05-01T10:35:14;78518.31;;;17.43;69.48
63665;BME280;49820;33.966;73.390;2023-05-01T10:43:26;78544.50;;;18.26;64.21
63665;BME280;49820;33.966;73.390;2023-05-01T10:48:55;78538.50;;;17.16;96.94
63665;BME280;49820;33.966;73.390;2023-05-01T10:51:25;78537.97;;;17.96;83.81
63665;BME280;49820;33.966;73.390;2023-05-01T10:56:42;78547.56;;;16.82;82.17
63665;BME280;49820;33.966;73.390;2023-05-01T10:59:11;78533.47;;;16.66;86.62
63665;BME280;49820;33.966;73.390;2023-05-01T11:01:41;78540.69;;;16.99;92.51
63665;BME280;49820;33.966;73.390;2023-05-01T11:12:46;78502.34;;;15.79;81.70
63665;BME280;49820;33.966;73.390;2023-05-01T11:15:05;78493.81;;;15.89;85.34
63665;BME280;49820;33.966;73.390;2023-05-01T11:20:12;78499.38;;;15.85;86.10
63665;BME280;49820;33.966;73.390;2023-05-01T11:22:44;78487.00;;;15.30;88.03
63665;BME280;49820;33.966;73.390;2023-05-01T11:25:19;78490.63;;;15.55;97.44
63665;BME280;49820;33.966;73.390;2023-05-01T11:27:50;78478.28;;;15.29;91.00
63665;BME280;49820;33.966;73.390;2023-05-01T11:30:19;78483.66;;;15.29;96.09
63665;BME280;49820;33.966;73.390;2023-05-01T11:32:50;78474.56;;;14.74;98.99
63665;BME280;49820;33.966;73.390;2023-05-01T11:35:27;78469.28;;;14.55;100.00
63665;BME280;49820;33.966;73.390;2023-05-01T11:37:56;78430.59;;;14.14;94.73
63665;BME280;49820;33.966;73.390;2023-05-01T11:40:30;78444.81;;;14.28;100.00
63665;BME280;49820;33.966;73.390;2023-05-01T11:43:07;78481.63;;;14.31;100.00
63665;BME280;49820;33.966;73.390;2023-05-01T11:45:36;78481.38;;;14.21;100.00
63665;BME280;49820;33.966;73.390;2023-05-01T11:48:13;78474.97;;;14.30;100.00
63665;BME280;49820;33.966;73.390;2023-05-01T11:50:46;78435.19;;;13.66;100.00
63665;BME280;49820;33.966;73.390;2023-05-01T11:53:15;78448.78;;;13.79;100.00
63665;BME280;49820;33.966;73.390;2023-05-01T11:55:45;78452.88;;;13.78;100.00
63665;BME280;49820;33.966;73.390;2023-05-01T11:58:14;78467.56;;;13.79;100.00
63665;BME280;49820;33.966;73.390;2023-05-01T12:00:43;78454.53;;;13.52;100.00
63665;BME280;49820;33.966;73.390;2023-05-01T12:03:13;78432.03;;;13.26;100.00
63665;BME280;49820;33.966;73.390;2023-05-01T12:05:43;78449.69;;;13.38;100.00
63665;BME280;49820;33.966;73.390;2023-05-01T12:08:18;78428.59;;;13.09;100.00
63665;BME280;49820;33.966;73.390;2023-05-01T12:10:55;78476.09;;;13.12;100.00
63665;BME280;49820;33.966;73.390;2023-05-01T12:13:25;78486.22;;;13.10;100.00
63665;BME280;49820;33.966;73.390;2023-05-01T12:15:55;78470.94;;;13.06;100.00
63665;BME280;49820;33.966;73.390;2023-05-01T12:18:24;78468.91;;;12.88;100.00
63665;BME280;49820;33.966;73.390;2023-05-01T12:20:54;78443.91;;;12.75;100.00
63665;BME280;49820;33.966;73.390;2023-05-01T12:23:34;78476.97;;;12.88;100.00
63665;BME280;49820;33.966;73.390;2023-05-01T12:26:21;78465.19;;;12.60;100.00
63665;BME280;49820;33.966;73.390;2023-05-01T12:31:25;78469.69;;;12.47;100.00
63665;BME280;49820;33.966;73.390;2023-05-01T12:36:29;78478.16;;;12.53;100.00
63665;BME280;49820;33.966;73.390;2023-05-01T12:39:10;78464.66;;;12.37;100.00
63665;BME280;49820;33.966;73.390;2023-05-01T12:41:46;78488.94;;;12.51;100.00
63665;BME280;49820;33.966;73.390;2023-05-01T12:44:25;78483.94;;;12.41;100.00
63665;BME280;49820;33.966;73.390;2023-05-01T12:46:55;78483.47;;;12.35;100.00
63665;BME280;49820;33.966;73.390;2023-05-01T12:49:27;78487.22;;;12.23;100.00
63665;BME280;49820;33.966;73.390;2023-05-01T12:51:58;78482.59;;;12.01;100.00
63665;BME280;49820;33.966;73.390;2023-05-01T12:54:32;78460.97;;;11.65;100.00
63665;BME280;49820;33.966;73.390;2023-05-01T12:59:39;78465.97;;;11.34;100.00
63665;BME280;49820;33.966;73.390;2023-05-01T13:02:10;78510.22;;;11.52;100.00
63665;BME280;49820;33.966;73.390;2023-05-01T13:04:43;78512.00;;;11.36;100.00
63665;BME280;49820;33.966;73.390;2023-05-01T13:07:19;78507.81;;;11.21;100.00
63665;BME280;49820;33.966;73.390;2023-05-01T13:09:56;78513.34;;;11.15;100.00
63665;BME280;49820;33.966;73.390;2023-05-01T13:12:27;78518.75;;;11.13;100.00
63665;BME280;49820;33.966;73.390;2023-05-01T13:14:57;78526.34;;;11.04;100.00
63665;BME280;49820;33.966;73.390;2023-05-01T13:17:30;78531.44;;;10.89;100.00
63665;BME280;49820;33.966;73.390;2023-05-01T13:20:01;78535.00;;;10.82;100.00
63665;BME280;49820;33.966;73.390;2023-05-01T13:22:38;78530.59;;;10.72;100.00
63665;BME280;49820;33.966;73.390;2023-05-01T13:25:17;78547.41;;;10.68;100.00
63665;BME280;49820;33.966;73.390;2023-05-01T13:27:50;78538.69;;;10.45;100.00
63665;BME280;49820;33.966;73.390;2023-05-01T13:30:30;78557.88;;;10.52;100.00
63665;BME280;49820;33.966;73.390;2023-05-01T13:33:00;78529.31;;;10.21;100.00
63665;BME280;49820;33.966;73.390;2023-05-01T13:35:29;78549.13;;;10.28;100.00
63665;BME280;49820;33.966;73.390;2023-05-01T13:38:00;78535.47;;;10.14;100.00
63665;BME280;49820;33.966;73.390;2023-05-01T13:40:33;78560.72;;;10.19;100.00
63665;BME280;49820;33.966;73.390;2023-05-01T13:43:02;78569.44;;;10.17;100.00
63665;BME280;49820;33.966;73.390;2023-05-01T13:45:31;78573.44;;;10.16;100.00
63665;BME280;49820;33.966;73.390;2023-05-01T13:48:01;78585.56;;;10.13;100.00
63665;BME280;49820;33.966;73.390;2023-05-01T13:50:31;78570.53;;;10.00;100.00
63665;BME280;49820;33.966;73.390;2023-05-01T13:53:05;78593.16;;;10.03;100.00
63665;BME280;49820;33.966;73.390;2023-05-01T13:55:39;78592.69;;;9.94;100.00
63665;BME280;49820;33.966;73.390;2023-05-01T13:58:10;78576.22;;;9.85;100.00
63665;BME280;49820;33.966;73.390;2023-05-01T14:00:40;78561.16;;;9.74;100.00
63665;BME280;49820;33.966;73.390;2023-05-01T14:03:10;78558.69;;;9.66;100.00
63665;BME280;49820;33.966;73.390;2023-05-01T14:05:41;78559.41;;;9.64;100.00
63665;BME280;49820;33.966;73.390;2023-05-01T14:08:13;78583.16;;;9.74;100.00
63665;BME280;49820;33.966;73.390;2023-05-01T14:13:50;78594.97;;;9.81;100.00
63665;BME280;49820;33.966;73.390;2023-05-01T14:16:24;78605.72;;;9.79;100.00
63665;BME280;49820;33.966;73.390;2023-05-01T14:18:55;78598.50;;;9.74;100.00
63665;BME280;49820;33.966;73.390;2023-05-01T14:21:25;78603.31;;;9.67;100.00
63665;BME280;49820;33.966;73.390;2023-05-01T14:23:56;78571.88;;;9.43;100.00
63665;BME280;49820;33.966;73.390;2023-05-01T14:26:25;78611.44;;;9.63;100.00
63665;BME280;49820;33.966;73.390;2023-05-01T14:28:55;78612.03;;;9.66;100.00
63665;BME280;49820;33.966;73.390;2023-05-01T14:31:28;78605.41;;;9.65;100.00
63665;BME280;49820;33.966;73.390;2023-05-01T14:34:00;78569.13;;;9.47;100.00
63665;BME280;49820;33.966;73.390;2023-05-01T14:36:30;78601.88;;;9.72;100.00
63665;BME280;49820;33.966;73.390;2023-05-01T14:39:07;78582.78;;;9.62;100.00
63665;BME280;49820;33.966;73.390;2023-05-01T14:41:39;78611.06;;;9.79;100.00
63665;BME280;49820;33.966;73.390;2023-05-01T14:44:11;78612.41;;;9.78;100.00
63665;BME280;49820;33.966;73.390;2023-05-01T14:46:46;78614.94;;;9.84;100.00
63665;BME280;49820;33.966;73.390;2023-05-01T14:49:23;78599.06;;;9.78;100.00
63665;BME280;49820;33.966;73.390;2023-05-01T14:51:53;78602.44;;;9.77;100.00
63665;BME280;49820;33.966;73.390;2023-05-01T14:54:23;78593.81;;;9.74;100.00
63665;BME280;49820;33.966;73.390;2023-05-01T14:56:52;78603.06;;;9.79;100.00
63665;BME280;49820;33.966;73.390;2023-05-01T14:59:21;78609.03;;;9.80;100.00
63665;BME280;49820;33.966;73.390;2023-05-01T15:01:51;78596.63;;;9.68;100.00
63665;BME280;49820;33.966;73.390;2023-05-01T15:04:21;78599.97;;;9.69;100.00
63665;BME280;49820;33.966;73.390;2023-05-01T15:06:52;78574.38;;;9.51;100.00
63665;BME280;49820;33.966;73.390;2023-05-01T15:09:21;78612.41;;;9.78;100.00
63665;BME280;49820;33.966;73.390;2023-05-01T15:11:50;78610.63;;;9.69;100.00
63665;BME280;49820;33.966;73.390;2023-05-01T15:14:19;78625.13;;;9.76;100.00
63665;BME280;49820;33.966;73.390;2023-05-01T15:16:48;78614.75;;;9.64;100.00
63665;BME280;49820;33.966;73.390;2023-05-01T15:19:17;78619.44;;;9.63;100.00
63665;BME280;49820;33.966;73.390;2023-05-01T15:21:47;78633.97;;;9.68;100.00
63665;BME280;49820;33.966;73.390;2023-05-01T15:24:16;78648.47;;;9.75;100.00
63665;BME280;49820;33.966;73.390;2023-05-01T15:26:46;78634.19;;;9.58;100.00
63665;BME280;49820;33.966;73.390;2023-05-01T15:29:16;78639.47;;;9.62;100.00
63665;BME280;49820;33.966;73.390;2023-05-01T15:31:45;78635.09;;;9.48;100.00
63665;BME280;49820;33.966;73.390;2023-05-01T15:34:24;78659.25;;;9.71;100.00
63665;BME280;49820;33.966;73.390;2023-05-01T15:36:53;78663.47;;;9.62;100.00
63665;BME280;49820;33.966;73.390;2023-05-01T15:39:23;78624.88;;;9.28;100.00
63665;BME280;49820;33.966;73.390;2023-05-01T15:41:52;78663.53;;;9.58;100.00
